Time;durP1;ratioP1;P1;durP2;ratioP2;P2;SDS_P1;SDS_P2;PMS_P1;PMS_P2;Temp;Humidity;BMP_temperature;BMP_pressure;BME280_temperature;BME280_humidity;BME280_pressure;Samples;Min_cycle;Max_cycle;Signal;HPM_P1;HPM_P2
2021/05/27 00:00:15;;;;;;;18.52;4.08;;;;;;;16.83;87.72;101003.50;1719381;83;21606;-39
2021/05/27 00:02:42;;;;;;;17.17;4.53;;;;;;;16.77;87.97;101005.43;1719447;83;20982;-37
2021/05/27 00:05:10;;;;;;;18.60;3.47;;;;;;;16.73;88.24;100999.92;1719454;82;21439;-37
2021/05/27 00:07:37;;;;;;;22.55;4.65;;;;;;;16.67;88.38;101001.42;1719341;83;20989;-37
2021/05/27 00:10:06;;;;;;;18.87;4.22;;;;;;;16.60;88.49;101000.80;1719423;83;20966;-38
2021/05/27 00:12:33;;;;;;;16.42;4.15;;;;;;;16.55;88.60;100992.72;1719415;83;20986;-37
2021/05/27 00:15:00;;;;;;;6.30;4.08;;;;;;;16.49;88.75;100995.95;1719273;83;21029;-39
2021/05/27 00:17:27;;;;;;;11.43;4.10;;;;;;;16.43;88.83;100997.91;1719462;82;21133;-38
2021/05/27 00:19:54;;;;;;;12.73;4.10;;;;;;;16.35;88.97;100989.03;1719310;83;21456;-36
2021/05/27 00:22:22;;;;;;;14.47;4.15;;;;;;;16.29;89.08;100994.00;1719593;83;21372;-39
2021/05/27 00:24:48;;;;;;;15.28;3.92;;;;;;;16.25;89.34;100995.02;1719356;83;20974;-39
2021/05/27 00:27:15;;;;;;;12.45;3.90;;;;;;;16.21;89.59;100994.72;1719382;83;20973;-36
2021/05/27 00:29:41;;;;;;;8.18;3.95;;;;;;;16.17;89.87;100993.99;1719339;83;20998;-37
2021/05/27 00:32:08;;;;;;;11.28;3.65;;;;;;;16.14;90.02;100996.67;1719366;83;20981;-37
2021/05/27 00:34:35;;;;;;;11.70;4.22;;;;;;;16.12;90.26;100989.81;1719615;83;20914;-37
2021/05/27 00:37:02;;;;;;;11.55;4.00;;;;;;;16.08;90.41;100991.23;1719242;83;21681;-37
2021/05/27 00:39:29;;;;;;;15.30;4.25;;;;;;;16.06;90.56;100994.34;1719422;83;20962;-36
2021/05/27 00:41:57;;;;;;;15.43;5.20;;;;;;;16.03;90.67;100992.27;1719281;83;21046;-37
2021/05/27 00:44:26;;;;;;;18.87;5.37;;;;;;;16.00;90.85;100999.74;1719391;83;20942;-39
2021/05/27 00:46:54;;;;;;;30.88;6.20;;;;;;;16.01;91.47;101005.36;1719387;83;20954;-39
2021/05/27 00:49:22;;;;;;;24.18;7.00;;;;;;;16.01;92.07;101000.14;1719294;83;20995;-37
2021/05/27 00:51:49;;;;;;;30.77;6.37;;;;;;;16.01;92.37;101001.92;1719389;83;20970;-38
2021/05/27 00:54:18;;;;;;;16.02;5.47;;;;;;;16.01;92.62;101005.36;1719316;83;21088;-39
2021/05/27 00:56:46;;;;;;;21.40;5.05;;;;;;;16.01;92.81;101003.22;1719364;83;21485;-37
2021/05/27 00:59:13;;;;;;;15.20;5.70;;;;;;;16.01;93.09;101003.22;1719498;83;21045;-37
2021/05/27 01:01:40;;;;;;;14.60;5.47;;;;;;;16.03;93.30;101007.94;1719423;83;21077;-38
2021/05/27 01:04:06;;;;;;;16.93;5.53;;;;;;;16.03;93.44;101009.25;1719304;83;20914;-38
2021/05/27 01:06:33;;;;;;;14.65;5.03;;;;;;;16.03;93.55;101006.16;1719480;83;21090;-39
2021/05/27 01:09:01;;;;;;;16.10;5.33;;;;;;;16.02;93.69;101003.16;1719394;83;21587;-37
2021/05/27 01:11:28;;;;;;;14.75;5.58;;;;;;;16.04;93.81;101001.38;1719388;83;20930;-38
2021/05/27 01:13:56;;;;;;;16.70;4.97;;;;;;;16.05;93.95;101008.74;1692649;83;20978;-38
2021/05/27 01:16:23;;;;;;;11.83;5.42;;;;;;;16.04;93.99;101009.21;1719346;82;20958;-38
2021/05/27 01:18:51;;;;;;;12.05;4.78;;;;;;;16.05;94.08;101007.44;1719302;83;21649;-38
2021/05/27 01:21:19;;;;;;;19.45;4.58;;;;;;;16.03;94.15;101004.02;1719266;83;20897;-39
2021/05/27 01:23:45;;;;;;;9.68;4.83;;;;;;;16.03;94.12;101009.25;1719327;83;20914;-39
2021/05/27 01:26:13;;;;;;;11.68;5.10;;;;;;;16.01;94.13;101004.53;1719268;83;20946;-38
2021/05/27 01:28:42;;;;;;;18.65;5.37;;;;;;;16.00;94.19;101008.05;1719387;83;22213;-38
2021/05/27 01:31:09;;;;;;;8.78;4.87;;;;;;;15.97;94.16;101010.29;1719257;83;21108;-37
2021/05/27 01:33:37;;;;;;;7.55;4.90;;;;;;;15.93;94.19;101005.64;1719254;83;20982;-39
2021/05/27 01:36:06;;;;;;;12.63;5.50;;;;;;;15.90;94.23;101004.88;1719185;82;20927;-38
2021/05/27 01:38:33;;;;;;;7.42;4.90;;;;;;;15.88;94.27;101005.34;1706744;83;21488;-39
2021/05/27 01:41:02;;;;;;;12.33;5.30;;;;;;;15.85;94.30;101010.66;1705810;84;21002;-39
2021/05/27 01:43:32;;;;;;;12.33;5.03;;;;;;;15.80;94.28;101005.14;1705873;84;21401;-37
2021/05/27 01:45:59;;;;;;;9.13;4.83;;;;;;;15.73;94.26;101011.44;1705801;84;21555;-37
2021/05/27 01:48:25;;;;;;;11.95;5.35;;;;;;;15.70;94.32;101004.17;1705895;83;20962;-39
2021/05/27 01:50:52;;;;;;;20.02;5.15;;;;;;;15.64;94.33;101008.66;1705816;84;21620;-39
2021/05/27 01:53:23;;;;;;;10.60;5.37;;;;;;;15.61;94.31;101008.75;1705285;84;20915;-37
2021/05/27 01:55:50;;;;;;;12.00;5.22;;;;;;;15.55;94.29;101006.81;1705856;84;21106;-38
2021/05/27 01:58:18;;;;;;;8.78;5.50;;;;;;;15.51;94.37;101004.73;1705886;84;20978;-38
2021/05/27 02:00:46;;;;;;;17.07;5.05;;;;;;;15.46;94.52;101003.56;1705922;84;21503;-39
2021/05/27 02:03:13;;;;;;;5.40;4.85;;;;;;;15.44;94.65;101004.05;1705652;84;21002;-38
2021/05/27 02:05:43;;;;;;;7.72;4.65;;;;;;;15.40;94.51;101004.19;1705998;84;21356;-36
2021/05/27 02:08:11;;;;;;;13.43;5.00;;;;;;;15.35;94.39;101008.25;1684499;84;21037;-38
2021/05/27 02:10:40;;;;;;;9.65;5.35;;;;;;;15.28;94.33;101000.19;1705204;84;20983;-38
2021/05/27 02:13:08;;;;;;;6.00;4.10;;;;;;;15.23;94.35;101006.39;1705694;84;20962;-39
2021/05/27 02:15:36;;;;;;;20.60;5.40;;;;;;;15.19;94.47;101008.69;1705661;82;21012;-37
2021/05/27 02:18:03;;;;;;;18.02;5.40;;;;;;;15.15;94.53;101007.08;1705763;84;20937;-36
2021/05/27 02:20:30;;;;;;;9.43;4.95;;;;;;;15.12;94.64;101004.56;1705914;84;21080;-39
2021/05/27 02:22:57;;;;;;;11.68;4.70;;;;;;;15.13;94.91;101000.19;1705754;84;20998;-37
2021/05/27 02:25:42;;;;;;;14.30;6.30;;;;;;;15.14;94.88;101003.20;1705801;83;21150;-37
2021/05/27 02:28:10;;;;;;;12.15;5.22;;;;;;;15.13;95.03;101010.18;1705383;83;21555;-35
2021/05/27 02:30:37;;;;;;;15.10;5.10;;;;;;;15.17;95.27;101007.88;1705868;84;20962;-37
2021/05/27 02:33:06;;;;;;;16.62;4.97;;;;;;;15.20;95.31;101006.48;1705605;83;21801;-36
2021/05/27 02:35:34;;;;;;;16.35;5.00;;;;;;;15.22;95.23;100996.03;1705616;84;20927;-37
2021/05/27 02:38:02;;;;;;;16.82;5.83;;;;;;;15.23;95.22;100992.05;1710259;83;21543;-37
2021/05/27 02:40:29;;;;;;;12.82;5.03;;;;;;;15.27;95.29;100988.05;1713569;83;21053;-38
2021/05/27 02:42:56;;;;;;;20.25;5.50;;;;;;;15.32;95.39;100995.31;1713799;83;20922;-35
2021/05/27 02:45:23;;;;;;;21.12;5.42;;;;;;;15.38;95.51;100992.05;1713772;83;21087;-36
2021/05/27 02:47:50;;;;;;;15.15;4.85;;;;;;;15.47;95.66;100990.91;1713518;83;20966;-37
2021/05/27 02:50:19;;;;;;;10.35;4.65;;;;;;;15.56;95.80;100984.56;1713646;83;20974;-36
2021/05/27 02:52:47;;;;;;;14.05;4.15;;;;;;;15.68;95.94;100987.72;1713526;83;21583;-36
2021/05/27 02:55:15;;;;;;;6.50;4.28;;;;;;;15.79;96.02;100981.25;1713662;83;20962;-35
2021/05/27 02:57:41;;;;;;;10.35;4.35;;;;;;;15.93;96.08;100991.72;1713599;83;21151;-36
2021/05/27 03:00:11;;;;;;;11.15;3.80;;;;;;;16.06;96.13;100994.34;1713502;83;20879;-37
2021/05/27 03:02:42;;;;;;;16.50;4.58;;;;;;;16.21;96.21;100990.37;1711342;83;20887;-38
2021/05/27 03:05:11;;;;;;;56.63;8.30;;;;;;;16.38;96.24;100991.53;1713639;83;21555;-38
2021/05/27 03:07:38;;;;;;;83.30;12.13;;;;;;;16.52;96.21;100988.00;1713647;83;20982;-36
2021/05/27 03:10:08;;;;;;;75.78;13.35;;;;;;;16.68;96.06;100985.30;1713781;83;21050;-38
2021/05/27 03:12:36;;;;;;;87.57;15.68;;;;;;;16.82;95.89;100985.67;1713512;83;20990;-37
2021/05/27 03:15:08;;;;;;;69.37;13.80;;;;;;;16.99;95.76;100981.59;1685917;83;20934;-36
2021/05/27 03:17:35;;;;;;;53.80;10.48;;;;;;;17.16;95.57;100979.21;1713602;82;20986;-36
2021/05/27 03:20:05;;;;;;;58.50;11.33;;;;;;;17.32;95.33;100976.02;1713607;83;20879;-38
2021/05/27 03:22:34;;;;;;;48.85;9.35;;;;;;;17.51;95.10;100978.30;1685712;83;21132;-37
2021/05/27 03:25:00;;;;;;;40.38;8.80;;;;;;;17.69;94.74;100969.33;1713693;83;21021;-37
2021/05/27 03:27:27;;;;;;;41.13;8.35;;;;;;;17.87;94.29;100974.27;1713794;83;20990;-37
2021/05/27 03:29:53;;;;;;;28.67;6.87;;;;;;;18.08;93.99;100978.27;1685417;83;21495;-37
2021/05/27 03:32:21;;;;;;;19.30;6.47;;;;;;;18.29;93.40;100982.20;1713700;83;20982;-37
2021/05/27 03:34:48;;;;;;;33.33;7.35;;;;;;;18.48;92.57;100979.64;1713701;83;21169;-38
2021/05/27 03:37:16;;;;;;;21.73;6.12;;;;;;;18.64;91.96;100978.06;1714173;83;21574;-36
2021/05/27 03:42:32;;;;;;;27.20;5.78;;;;;;;19.00;90.22;100979.58;1719406;83;21021;-38
2021/05/27 03:44:58;;;;;;;18.67;5.50;;;;;;;19.26;89.29;100984.09;1719315;83;21049;-35
2021/05/27 03:47:27;;;;;;;18.15;4.97;;;;;;;19.49;88.11;100977.30;1693015;83;21009;-36
2021/05/27 03:49:55;;;;;;;16.52;4.55;;;;;;;19.75;86.99;100976.97;1719196;83;20981;-36
2021/05/27 03:53:12;;;;;;;10.82;4.95;;;;;;;20.22;85.02;100981.67;1776491;79;22549;-35
2021/05/27 03:55:39;;;;;;;15.05;5.00;;;;;;;20.46;83.06;100980.03;1749082;82;20938;-36
2021/05/27 04:00:46;;;;;;;12.05;4.03;;;;;;;21.01;80.20;100982.00;1734728;82;20934;-36
2021/05/27 04:03:18;;;;;;;19.98;5.75;;;;;;;21.27;78.39;100979.72;1744360;82;20950;-36
2021/05/27 04:08:30;;;;;;;49.50;7.28;;;;;;;21.70;74.82;100982.20;1749128;82;20889;-37
2021/05/27 04:10:58;;;;;;;44.88;7.92;;;;;;;21.92;73.38;100981.83;1749069;82;21051;-36
2021/05/27 04:13:24;;;;;;;39.85;6.78;;;;;;;22.07;72.55;100978.77;1749046;81;21463;-36
2021/05/27 04:15:51;;;;;;;36.75;7.17;;;;;;;22.25;71.52;100981.64;1743458;82;21013;-38
2021/05/27 04:18:20;;;;;;;54.13;7.55;;;;;;;22.43;70.66;100979.30;1719166;83;21420;-38
2021/05/27 04:20:54;;;;;;;40.17;6.62;;;;;;;22.56;70.30;100977.64;1719257;83;20969;-38
2021/05/27 04:23:39;;;;;;;12.80;4.97;;;;;;;22.76;70.07;100976.44;1719501;83;21070;-37
2021/05/27 04:26:11;;;;;;;11.38;4.00;;;;;;;22.99;69.05;100970.66;1718232;83;20907;-39
2021/05/27 04:28:39;;;;;;;9.35;3.35;;;;;;;23.15;68.09;100971.39;1715445;83;20954;-37
2021/05/27 04:31:12;;;;;;;5.05;3.75;;;;;;;23.37;67.26;100963.45;1719014;83;21021;-38
2021/05/27 04:33:41;;;;;;;7.53;3.42;;;;;;;23.62;66.40;100966.64;1718703;83;21593;-38
2021/05/27 04:36:11;;;;;;;9.83;3.55;;;;;;;23.87;65.41;100962.37;1717444;83;21089;-39
2021/05/27 04:38:39;;;;;;;12.80;3.60;;;;;;;24.05;65.00;100967.41;1719092;83;20863;-39
2021/05/27 04:41:06;;;;;;;9.08;3.67;;;;;;;24.19;64.48;100972.59;1719087;83;20970;-38
2021/05/27 04:43:35;;;;;;;12.07;3.80;;;;;;;24.29;63.52;100974.13;1719208;83;20930;-37
2021/05/27 04:46:02;;;;;;;11.70;4.17;;;;;;;24.28;63.62;100977.73;1719212;83;21582;-39
2021/05/27 04:48:31;;;;;;;21.60;4.08;;;;;;;24.33;63.16;100976.94;1719116;83;20997;-38
2021/05/27 04:50:58;;;;;;;22.20;4.10;;;;;;;24.42;62.95;100979.42;1719177;83;21013;-37
2021/05/27 04:53:24;;;;;;;18.35;3.90;;;;;;;24.62;62.64;100975.39;1720118;83;20915;-39
2021/05/27 04:55:52;;;;;;;16.17;4.08;;;;;;;24.90;61.44;100973.96;1720003;83;21112;-37
2021/05/27 04:58:20;;;;;;;21.57;4.42;;;;;;;25.15;60.56;100977.03;1720126;83;20863;-37
2021/05/27 05:00:47;;;;;;;22.65;4.40;;;;;;;25.15;60.20;100978.36;1719900;83;21486;-37
2021/05/27 05:03:13;;;;;;;25.82;4.10;;;;;;;25.20;60.04;100974.89;1719721;83;21535;-37
2021/05/27 05:05:41;;;;;;;23.42;4.83;;;;;;;25.28;59.55;100974.80;1719506;83;20898;-37
2021/05/27 05:08:08;;;;;;;16.52;4.35;;;;;;;25.38;59.35;100973.16;1719454;83;21033;-36
2021/05/27 05:10:35;;;;;;;24.45;5.05;;;;;;;25.46;58.31;100971.28;1719399;83;20922;-39
2021/05/27 05:13:05;;;;;;;19.07;4.05;;;;;;;25.50;57.46;100966.15;1719487;83;21099;-38
2021/05/27 05:15:37;;;;;;;21.50;4.97;;;;;;;25.52;57.11;100973.04;1693415;82;21073;-38
2021/05/27 05:18:10;;;;;;;16.37;4.05;;;;;;;25.60;56.82;100974.27;1718668;83;20970;-35
2021/05/27 05:20:45;;;;;;;18.60;3.92;;;;;;;25.51;56.70;100974.46;1719353;83;20918;-36
2021/05/27 05:23:12;;;;;;;12.90;4.15;;;;;;;25.56;56.58;100975.00;1719345;83;20934;-38
2021/05/27 05:25:40;;;;;;;27.75;5.10;;;;;;;25.61;56.52;100974.63;1719250;83;21114;-36
2021/05/27 05:28:07;;;;;;;17.77;4.10;;;;;;;25.65;56.17;100975.63;1719335;83;20989;-38
2021/05/27 05:30:34;;;;;;;19.65;4.08;;;;;;;25.68;56.57;100979.86;1719286;83;21503;-38
2021/05/27 05:33:01;;;;;;;19.77;4.70;;;;;;;25.64;55.78;100973.94;1719562;83;21590;-36
2021/05/27 05:35:28;;;;;;;17.00;4.95;;;;;;;25.66;55.48;100979.13;1719593;83;21502;-39
2021/05/27 05:37:54;;;;;;;20.65;5.03;;;;;;;25.69;54.24;100974.92;1719499;83;21697;-38
2021/05/27 05:40:24;;;;;;;25.97;4.47;;;;;;;25.67;54.01;100974.20;1719189;83;20902;-38
2021/05/27 05:42:51;;;;;;;27.22;5.47;;;;;;;25.66;54.07;100975.16;1719476;83;20887;-38
2021/05/27 05:45:19;;;;;;;14.40;4.75;;;;;;;25.73;53.93;100972.41;1719283;83;20974;-38
2021/05/27 05:47:47;;;;;;;20.15;4.53;;;;;;;25.97;54.15;100975.00;1719376;83;20938;-36
2021/05/27 05:50:14;;;;;;;15.78;4.20;;;;;;;26.21;53.81;100971.97;1719377;83;21040;-38
2021/05/27 05:52:41;;;;;;;17.25;4.42;;;;;;;26.40;53.33;100971.38;1712096;83;20931;-38
2021/05/27 05:55:09;;;;;;;13.80;3.85;;;;;;;26.63;51.94;100964.76;1705871;83;21026;-39
2021/05/27 05:57:36;;;;;;;14.45;4.37;;;;;;;26.90;52.12;100962.23;1685894;84;21654;-37
2021/05/27 06:00:05;;;;;;;12.18;3.65;;;;;;;27.11;51.40;100962.30;1705858;84;21508;-39
2021/05/27 06:02:33;;;;;;;11.05;3.77;;;;;;;27.31;49.82;100959.84;1704936;83;21105;-38
2021/05/27 06:05:01;;;;;;;15.03;3.72;;;;;;;27.45;48.71;100956.05;1705750;83;21555;-38
2021/05/27 06:07:31;;;;;;;12.40;3.40;;;;;;;27.60;49.19;100957.48;1704605;83;21575;-38
2021/05/27 06:09:59;;;;;;;9.60;3.30;;;;;;;27.69;47.49;100954.55;1705734;84;21042;-39
2021/05/27 06:12:25;;;;;;;16.25;3.45;;;;;;;27.79;48.11;100954.62;1705766;84;20962;-39
2021/05/27 06:14:52;;;;;;;14.28;3.62;;;;;;;27.82;47.09;100967.15;1705706;84;21094;-39
2021/05/27 06:17:19;;;;;;;18.30;3.42;;;;;;;27.76;46.30;100957.04;1705686;82;20975;-38
2021/05/27 06:19:45;;;;;;;14.98;3.60;;;;;;;27.78;47.05;100960.88;1705751;84;20942;-38
2021/05/27 06:22:17;;;;;;;6.25;2.95;;;;;;;27.82;46.14;100953.86;1705377;83;21010;-36
2021/05/27 06:24:45;;;;;;;15.18;3.20;;;;;;;27.88;45.90;100948.98;1705318;84;21559;-35
2021/05/27 06:27:12;;;;;;;9.90;3.25;;;;;;;27.83;46.68;100948.89;1705881;84;21093;-35
2021/05/27 06:29:38;;;;;;;9.15;3.35;;;;;;;27.78;46.29;100944.92;1705803;84;21539;-37
2021/05/27 06:32:06;;;;;;;10.65;3.15;;;;;;;27.86;46.61;100944.28;1705939;83;21595;-38
2021/05/27 06:34:32;;;;;;;6.90;2.92;;;;;;;27.82;46.54;100937.90;1705851;84;20986;-37
2021/05/27 06:36:59;;;;;;;8.55;2.55;;;;;;;27.81;46.24;100949.52;1705797;84;20935;-36
2021/05/27 06:39:27;;;;;;;7.50;2.60;;;;;;;27.85;45.31;100947.45;1705946;83;21006;-37
2021/05/27 06:41:57;;;;;;;5.83;2.60;;;;;;;27.72;45.24;100947.64;1705709;84;21014;-37
2021/05/27 06:44:24;;;;;;;4.58;2.60;;;;;;;27.71;45.33;100953.93;1705795;84;20991;-36
2021/05/27 06:46:50;;;;;;;7.62;2.85;;;;;;;27.88;46.29;100945.86;1705685;84;20926;-37
2021/05/27 06:49:16;;;;;;;8.70;2.40;;;;;;;28.05;45.43;100944.92;1705946;84;21006;-37
2021/05/27 06:51:45;;;;;;;6.97;2.70;;;;;;;28.18;44.64;100947.41;1705829;84;21102;-38
2021/05/27 06:54:12;;;;;;;6.35;2.58;;;;;;;28.23;43.40;100943.85;1705818;84;20998;-36
2021/05/27 06:56:38;;;;;;;5.33;2.47;;;;;;;28.13;44.20;100946.89;1705865;83;21606;-36
2021/05/27 06:59:05;;;;;;;4.10;2.30;;;;;;;28.01;44.43;100939.48;1705940;84;21610;-38
2021/05/27 07:01:31;;;;;;;17.23;2.80;;;;;;;28.07;43.74;100936.31;1705816;84;20954;-37
2021/05/27 07:03:58;;;;;;;4.87;2.30;;;;;;;28.18;44.32;100934.92;1705878;84;21114;-37
2021/05/27 07:06:24;;;;;;;3.05;2.35;;;;;;;28.31;43.34;100940.03;1705798;84;20875;-37
2021/05/27 07:08:51;;;;;;;11.68;2.30;;;;;;;28.33;43.34;100928.77;1706041;84;20951;-38
2021/05/27 07:11:17;;;;;;;9.30;2.42;;;;;;;28.41;43.98;100930.77;1705773;84;20915;-38
2021/05/27 07:13:45;;;;;;;10.65;2.62;;;;;;;28.51;44.32;100924.15;1705768;83;21559;-38
2021/05/27 07:16:12;;;;;;;17.82;3.30;;;;;;;28.66;44.93;100926.77;1705646;82;21097;-37
2021/05/27 07:18:39;;;;;;;11.00;2.92;;;;;;;28.79;44.92;100927.06;1705722;84;20974;-38
2021/05/27 07:21:05;;;;;;;17.35;2.70;;;;;;;28.87;44.46;100927.72;1705872;84;21034;-38
2021/05/27 07:23:32;;;;;;;9.38;2.40;;;;;;;28.68;43.66;100918.19;1705714;84;21010;-36
2021/05/27 07:26:02;;;;;;;5.37;2.33;;;;;;;28.43;44.89;100926.65;1705744;84;20990;-37
2021/05/27 07:28:29;;;;;;;10.72;3.22;;;;;;;28.39;46.31;100919.41;1705734;84;21798;-37
2021/05/27 07:30:55;;;;;;;6.65;2.95;;;;;;;28.38;45.60;100917.22;1705857;84;21515;-37
2021/05/27 07:33:22;;;;;;;13.22;2.83;;;;;;;28.52;44.84;100924.00;1705654;84;21590;-38
2021/05/27 07:35:48;;;;;;;6.97;2.15;;;;;;;28.67;44.60;100916.98;1705782;84;21583;-36
2021/05/27 07:38:14;;;;;;;12.85;2.60;;;;;;;28.66;44.04;100914.79;1705954;84;21673;-37
2021/05/27 07:40:41;;;;;;;5.83;2.00;;;;;;;28.61;44.21;100917.53;1705842;84;21400;-36
2021/05/27 07:43:07;;;;;;;5.97;2.10;;;;;;;28.70;43.01;100910.05;1705731;84;21587;-36
2021/05/27 07:45:34;;;;;;;5.45;2.10;;;;;;;28.83;42.16;100911.16;1705977;83;21457;-37
2021/05/27 07:48:00;;;;;;;9.35;2.42;;;;;;;29.01;41.85;100903.33;1705871;84;21516;-37
2021/05/27 07:50:27;;;;;;;14.15;2.75;;;;;;;29.11;42.35;100904.67;1705819;84;21600;-36
2021/05/27 07:52:54;;;;;;;3.40;2.35;;;;;;;29.13;42.67;100905.88;1710046;83;21686;-37
2021/05/27 07:55:20;;;;;;;8.40;2.20;;;;;;;28.93;42.39;100911.18;1719359;83;20949;-37
2021/05/27 07:57:47;;;;;;;13.03;2.00;;;;;;;28.83;42.00;100909.83;1719277;83;21467;-38
2021/05/27 08:00:15;;;;;;;9.05;1.90;;;;;;;28.64;41.34;100910.09;1719239;83;21500;-38
2021/05/27 08:02:42;;;;;;;8.98;1.87;;;;;;;28.40;41.05;100913.11;1719158;83;21527;-38
2021/05/27 08:05:12;;;;;;;11.15;1.60;;;;;;;28.58;39.09;100913.81;1719257;83;21119;-39
2021/05/27 08:07:38;;;;;;;7.55;2.00;;;;;;;28.61;37.97;100911.70;1692647;83;21033;-37
2021/05/27 08:10:09;;;;;;;17.55;1.82;;;;;;;28.58;39.23;100903.98;1719350;83;20958;-39
2021/05/27 08:12:36;;;;;;;6.80;1.55;;;;;;;28.84;39.76;100909.35;1719331;83;20990;-36
2021/05/27 08:15:06;;;;;;;12.98;2.72;;;;;;;29.15;37.18;100898.08;1719158;83;20994;-37
2021/05/27 08:17:32;;;;;;;21.23;2.25;;;;;;;29.47;36.98;100901.00;1719110;82;21153;-37
2021/05/27 08:19:59;;;;;;;6.00;1.40;;;;;;;29.67;37.25;100896.48;1719124;83;21029;-38
2021/05/27 08:22:27;;;;;;;16.17;1.87;;;;;;;29.81;36.04;100896.52;1719205;83;21005;-37
2021/05/27 08:24:57;;;;;;;3.58;1.62;;;;;;;29.60;35.04;100897.19;1719266;83;21590;-37
2021/05/27 08:27:24;;;;;;;9.18;2.00;;;;;;;29.16;35.90;100897.61;1719317;83;20915;-37
2021/05/27 08:29:51;;;;;;;7.00;1.60;;;;;;;29.06;36.44;100902.45;1719273;83;21870;-37
2021/05/27 08:32:18;;;;;;;16.62;2.22;;;;;;;29.12;37.11;100891.70;1719202;83;21727;-37
2021/05/27 08:34:45;;;;;;;8.10;1.65;;;;;;;29.32;36.70;100891.71;1719172;83;20958;-37
2021/05/27 08:37:11;;;;;;;2.45;1.35;;;;;;;29.21;36.23;100894.87;1719248;83;21046;-38
2021/05/27 08:39:38;;;;;;;7.22;1.70;;;;;;;28.86;36.27;100886.91;1719290;83;20966;-38
2021/05/27 08:42:06;;;;;;;19.17;2.25;;;;;;;28.38;36.17;100888.45;1719378;83;21063;-38
2021/05/27 08:44:40;;;;;;;12.85;2.12;;;;;;;27.93;37.76;100894.94;1719233;83;21066;-38
2021/05/27 08:47:06;;;;;;;23.12;2.40;;;;;;;27.57;38.61;100891.29;1719371;83;21527;-37
2021/05/27 08:49:35;;;;;;;20.02;2.40;;;;;;;27.51;39.10;100892.64;1719369;83;20989;-38
2021/05/27 08:52:03;;;;;;;9.58;1.72;;;;;;;27.54;39.80;100887.06;1719259;83;20918;-37
2021/05/27 08:54:31;;;;;;;3.95;1.57;;;;;;;27.75;39.21;100894.20;1719251;83;21098;-37
2021/05/27 08:57:03;;;;;;;12.58;1.82;;;;;;;27.90;39.08;100895.18;1719246;83;20918;-37
2021/05/27 08:59:30;;;;;;;3.83;1.25;;;;;;;28.21;39.68;100892.59;1719596;83;20957;-37
2021/05/27 09:02:08;;;;;;;8.30;1.52;;;;;;;28.59;38.65;100892.36;1719447;83;20984;-38
2021/05/27 09:04:35;;;;;;;9.20;1.95;;;;;;;28.73;37.33;100890.30;1719391;83;20888;-37
2021/05/27 09:07:04;;;;;;;8.05;2.15;;;;;;;28.83;37.79;100888.52;1719272;83;21851;-38
2021/05/27 09:09:55;;;;;;;2.77;1.70;;;;;;;29.02;38.33;100885.54;1719388;83;21494;-38
2021/05/27 09:12:33;;;;;;;3.65;1.50;;;;;;;29.20;39.18;100883.88;1719427;83;21025;-37
2021/05/27 09:15:03;;;;;;;7.40;1.75;;;;;;;29.33;37.76;100886.73;1719606;83;20970;-38
2021/05/27 09:17:50;;;;;;;3.95;1.42;;;;;;;29.34;37.22;100891.08;1719292;82;21634;-38
2021/05/27 09:20:26;;;;;;;4.85;1.62;;;;;;;29.22;36.24;100883.23;1719469;83;21708;-38
2021/05/27 09:23:09;;;;;;;3.20;1.60;;;;;;;29.30;37.44;100885.17;1719186;83;20910;-38
2021/05/27 09:25:37;;;;;;;1.67;1.57;;;;;;;29.39;36.97;100886.16;1719301;83;20946;-36
2021/05/27 09:28:08;;;;;;;4.00;1.90;;;;;;;29.38;36.72;100885.81;1719226;83;20922;-37
2021/05/27 09:30:43;;;;;;;2.95;1.80;;;;;;;29.40;36.46;100887.84;1719367;83;21439;-37
2021/05/27 09:33:10;;;;;;;;;;;;;;;29.32;36.61;100889.05;1721987;83;21723;-38
2021/05/27 09:35:37;;;;;;;9.40;1.92;;;;;;;29.25;35.75;100886.95;1719240;83;20152;-38
2021/05/27 09:38:04;;;;;;;15.45;1.85;;;;;;;29.10;36.58;100885.67;1719257;83;21061;-37
2021/05/27 09:40:43;;;;;;;4.78;1.62;;;;;;;28.93;36.86;100889.39;1719272;83;21037;-37
2021/05/27 09:43:11;;;;;;;3.67;1.67;;;;;;;28.94;36.78;100884.42;1719362;83;20942;-36
2021/05/27 09:45:39;;;;;;;2.87;1.67;;;;;;;28.96;37.45;100878.46;1719296;83;21080;-37
2021/05/27 09:48:25;;;;;;;3.45;1.80;;;;;;;29.08;37.16;100873.84;1719358;83;20935;-39
2021/05/27 09:50:58;;;;;;;3.10;1.47;;;;;;;29.11;36.75;100872.70;1719389;83;20962;-38
2021/05/27 09:53:25;;;;;;;2.35;1.55;;;;;;;29.13;35.36;100873.91;1719226;83;21045;-38
2021/05/27 09:55:58;;;;;;;9.98;1.70;;;;;;;29.21;35.27;100866.91;1719347;83;21088;-36
2021/05/27 09:58:25;;;;;;;3.17;1.75;;;;;;;29.43;34.80;100865.44;1719398;83;21071;-38
2021/05/27 10:00:53;;;;;;;3.05;1.70;;;;;;;29.32;34.61;100865.06;1719390;83;20962;-37
2021/05/27 10:03:35;;;;;;;2.05;1.67;;;;;;;29.41;35.22;100868.23;1719322;83;20966;-37
2021/05/27 10:06:06;;;;;;;3.37;1.92;;;;;;;29.87;34.27;100859.58;1719124;83;20994;-41
2021/05/27 10:08:54;;;;;;;2.40;1.85;;;;;;;30.65;33.46;100858.43;1719115;83;21061;-39
2021/05/27 10:11:22;;;;;;;4.80;1.90;;;;;;;31.33;32.60;100849.06;1719318;83;21087;-39
2021/05/27 10:13:49;;;;;;;5.22;1.60;;;;;;;31.90;30.98;100849.59;1719275;83;21499;-38
2021/05/27 10:16:20;;;;;;;2.30;1.67;;;;;;;32.28;30.58;100851.94;1719173;82;20958;-38
2021/05/27 10:18:49;;;;;;;6.05;1.90;;;;;;;32.52;30.46;100846.69;1719304;83;21027;-39
2021/05/27 10:21:15;;;;;;;11.50;1.75;;;;;;;32.75;27.67;100847.92;1718813;83;21578;-38
2021/05/27 10:23:42;;;;;;;2.15;1.27;;;;;;;33.03;29.01;100843.62;1719438;83;21793;-39
2021/05/27 10:26:09;;;;;;;15.68;1.77;;;;;;;33.38;26.88;100842.92;1719192;83;21005;-39
2021/05/27 10:28:40;;;;;;;5.12;1.65;;;;;;;33.12;27.58;100842.60;1719247;83;20990;-37
2021/05/27 10:31:06;;;;;;;13.93;1.90;;;;;;;32.85;26.99;100845.09;1719239;83;21033;-38
2021/05/27 10:33:40;;;;;;;12.20;1.70;;;;;;;32.44;27.58;100842.66;1719365;83;20997;-39
2021/05/27 10:36:11;;;;;;;3.62;1.50;;;;;;;31.97;28.78;100842.63;1719203;83;20950;-38
2021/05/27 10:38:47;;;;;;;4.05;1.70;;;;;;;32.35;27.94;100843.13;1719203;83;21014;-39
2021/05/27 10:41:24;;;;;;;6.30;1.47;;;;;;;32.30;26.83;100840.56;1719321;83;20943;-39
2021/05/27 10:44:06;;;;;;;11.50;1.62;;;;;;;32.19;26.58;100844.37;1715351;83;21574;-38
2021/05/27 10:46:51;;;;;;;3.27;1.50;;;;;;;32.17;27.61;100841.02;1717819;83;20883;-39
2021/05/27 10:49:45;;;;;;;3.62;1.10;;;;;;;32.15;26.76;100840.34;1719386;83;21107;-39
2021/05/27 10:52:33;;;;;;;4.00;1.30;;;;;;;32.02;26.58;100847.48;1719293;83;21503;-39
2021/05/27 10:54:59;;;;;;;6.22;1.37;;;;;;;31.82;26.93;100847.23;1719264;83;20970;-38
2021/05/27 10:57:45;;;;;;;1.67;1.30;;;;;;;31.56;27.38;100838.34;1692892;83;21033;-37
2021/05/27 11:00:34;;;;;;;3.02;1.20;;;;;;;31.58;27.74;100835.02;1719201;83;20997;-37
2021/05/27 11:03:42;;;;;;;1.57;1.20;;;;;;;31.63;27.22;100835.38;1719264;83;21018;-39
2021/05/27 11:06:35;;;;;;;3.52;1.20;;;;;;;31.74;27.83;100836.94;1719213;83;20993;-37
2021/05/27 11:09:14;;;;;;;3.12;1.27;;;;;;;31.65;27.90;100834.23;1719495;83;21017;-39
2021/05/27 11:11:57;;;;;;;1.50;1.00;;;;;;;31.63;28.12;100830.02;1719299;83;21037;-39
2021/05/27 11:14:40;;;;;;;2.80;1.35;;;;;;;31.52;27.24;100832.46;1716962;83;20915;-37
2021/05/27 11:25:24;;;;;;;6.53;1.72;;;;;;;31.52;28.34;100829.78;1719344;83;21013;-38
2021/05/27 11:28:04;;;;;;;6.85;1.62;;;;;;;31.51;29.07;100828.97;1719068;82;20974;-38
2021/05/27 11:30:40;;;;;;;13.58;1.72;;;;;;;31.56;29.02;100820.96;1719407;83;21103;-39
2021/05/27 11:33:22;;;;;;;3.33;1.60;;;;;;;31.82;29.25;100821.81;1719246;83;20973;-39
2021/05/27 11:35:53;;;;;;;4.53;1.42;;;;;;;31.94;28.71;100824.19;1719262;83;20977;-37
2021/05/27 11:38:24;;;;;;;2.50;1.37;;;;;;;31.81;28.83;100819.28;1719319;83;21053;-37
2021/05/27 11:41:02;;;;;;;6.30;1.72;;;;;;;31.78;28.29;100815.11;1719322;83;21045;-39
2021/05/27 11:43:36;;;;;;;3.05;1.30;;;;;;;31.70;28.43;100815.02;1719329;83;21163;-39
2021/05/27 11:46:07;;;;;;;3.70;1.60;;;;;;;31.60;28.64;100812.48;1719198;83;21372;-39
2021/05/27 11:51:13;;;;;;;5.20;1.80;;;;;;;31.41;28.59;100809.49;1719252;83;20902;-36